CPX337 Details

Departure: Fort Worth Alliance Airport (KAFW)
Arrival: Miami International Airport (KMIA) at N/A
Route: KUSSO5 ZALEA SWB HRV Q105 BLVNS Y290 BAGGS SSCOT5
Notes:


Current Weather Information
KAFW 250453Z 07005KT 10SM FEW100 SCT250 27/22 A2990 RMK AO2 SLP109 T02670222
KMIA 250453Z 18004KT 10SM FEW030 FEW250 28/25 A2993 RMK AO2 SLP136 T02780250 403390261